Time;durP1;ratioP1;P1;durP2;ratioP2;P2;SDS_P1;SDS_P2;PMS_P1;PMS_P2;Temp;Humidity;BMP_temperature;BMP_pressure;BME280_temperature;BME280_humidity;BME280_pressure;Samples;Min_cycle;Max_cycle;Signal;HPM_P1;HPM_P2
2024/01/13 00:01:08;;;;;;;6.88;2.25;;;;;;;-2.99;80.10;95052.28;5093760;28;20260;-74
2024/01/13 00:03:36;;;;;;;2.90;1.35;;;;;;;-3.12;81.81;95054.38;5091086;28;20615;-76
2024/01/13 00:06:03;;;;;;;2.90;2.30;;;;;;;-3.20;80.77;95057.41;5093487;28;20202;-75
2024/01/13 00:08:30;;;;;;;1.63;1.25;;;;;;;-3.19;81.06;95059.81;5093705;28;20332;-75
2024/01/13 00:10:56;;;;;;;4.72;2.35;;;;;;;-3.15;80.74;95037.13;5094376;28;20597;-74
2024/01/13 00:13:25;;;;;;;1.38;1.27;;;;;;;-3.19;80.62;95038.63;5093784;28;20241;-72
2024/01/13 00:15:52;;;;;;;2.78;1.48;;;;;;;-3.12;80.21;95044.59;5093618;28;20213;-73
2024/01/13 00:18:21;;;;;;;4.97;2.00;;;;;;;-3.13;79.76;95032.38;5093620;28;20214;-72
2024/01/13 00:20:48;;;;;;;4.15;2.20;;;;;;;-3.18;80.01;95034.94;5093870;28;20549;-72
2024/01/13 00:23:14;;;;;;;1.60;1.42;;;;;;;-3.06;79.36;95035.72;5093696;28;20573;-72
2024/01/13 00:25:41;;;;;;;3.03;2.10;;;;;;;-3.07;78.73;95036.78;5093683;28;20206;-73
2024/01/13 00:28:08;;;;;;;2.00;1.55;;;;;;;-2.97;78.40;95036.97;5093406;28;20202;-73
2024/01/13 00:30:35;;;;;;;2.50;1.85;;;;;;;-2.97;78.40;95036.97;5092837;28;20577;-72
2024/01/13 00:33:01;;;;;;;4.85;2.35;;;;;;;-2.99;79.02;95044.34;5093023;28;20228;-71
2024/01/13 00:35:29;;;;;;;1.98;1.33;;;;;;;-3.20;78.75;95036.22;5092699;28;20202;-71
2024/01/13 00:37:56;;;;;;;6.90;2.65;;;;;;;-3.09;80.24;95038.84;5090028;28;20291;-72
2024/01/13 00:40:22;;;;;;;7.00;2.47;;;;;;;-3.07;79.73;95030.66;5089260;28;20611;-73
2024/01/13 00:42:49;;;;;;;4.40;2.00;;;;;;;-3.00;78.81;95040.09;5086331;28;20225;-72
2024/01/13 00:45:15;;;;;;;3.05;2.10;;;;;;;-3.09;79.71;95033.53;5086620;28;20191;-73
2024/01/13 00:47:43;;;;;;;3.00;1.55;;;;;;;-3.10;78.75;95026.63;5086088;28;20260;-71
2024/01/13 00:50:10;;;;;;;2.42;1.80;;;;;;;-3.21;79.11;95030.09;5083174;28;20660;-71
2024/01/13 00:52:38;;;;;;;2.50;1.75;;;;;;;-3.15;79.91;95029.19;5086757;28;20194;-73
2024/01/13 00:55:06;;;;;;;4.28;1.75;;;;;;;-3.14;79.15;95025.47;5089037;28;20229;-72
2024/01/13 00:57:33;;;;;;;3.30;1.73;;;;;;;-3.19;79.73;95024.56;5088147;28;20600;-72
2024/01/13 00:59:59;;;;;;;5.85;2.83;;;;;;;-3.13;78.69;95027.09;5090790;28;20407;-71
2024/01/13 01:02:26;;;;;;;8.68;2.33;;;;;;;-3.22;79.59;95023.19;5090193;28;20251;-71
2024/01/13 01:04:53;;;;;;;4.18;1.73;;;;;;;-3.20;80.04;95025.63;5084360;28;20218;-70
2024/01/13 01:07:19;;;;;;;1.48;1.38;;;;;;;-3.15;80.40;95015.94;5091170;28;20205;-72
2024/01/13 01:09:48;;;;;;;0.77;0.77;;;;;;;-3.01;80.36;95019.16;5086356;28;20253;-72
2024/01/13 01:12:14;;;;;;;3.65;1.85;;;;;;;-2.98;79.59;95014.16;5089034;28;20615;-72
2024/01/13 01:14:41;;;;;;;3.60;2.35;;;;;;;-3.19;80.10;95011.34;5083693;28;20226;-74
2024/01/13 01:17:08;;;;;;;3.47;1.90;;;;;;;-3.10;80.40;95016.03;5090122;28;20198;-73
2024/01/13 01:19:35;;;;;;;4.15;3.20;;;;;;;-3.09;80.48;95001.75;5085677;28;20796;-73
2024/01/13 01:22:02;;;;;;;1.48;1.17;;;;;;;-3.13;80.93;95005.09;5087792;28;20255;-72
2024/01/13 01:24:28;;;;;;;4.13;1.45;;;;;;;-3.06;80.28;95000.50;5082178;28;20298;-72
2024/01/13 01:26:57;;;;;;;5.50;2.50;;;;;;;-3.11;81.73;94992.41;5087004;28;20210;-73
2024/01/13 01:29:23;;;;;;;4.30;2.17;;;;;;;-3.06;80.89;94997.84;5087874;28;20232;-73
2024/01/13 01:31:50;;;;;;;1.52;0.95;;;;;;;-3.11;80.57;94997.72;5088771;28;20247;-73
2024/01/13 01:34:17;;;;;;;6.63;2.75;;;;;;;-3.11;81.42;94987.13;5083809;28;20218;-73
2024/01/13 01:36:43;;;;;;;2.92;1.90;;;;;;;-3.12;81.27;94986.31;5092100;28;20210;-72
2024/01/13 01:39:10;;;;;;;9.00;2.75;;;;;;;-3.10;80.84;94986.88;5092193;28;20218;-75
2024/01/13 01:41:37;;;;;;;5.47;2.75;;;;;;;-3.10;81.15;94978.94;5092399;28;20313;-73
2024/01/13 01:44:06;;;;;;;2.88;1.10;;;;;;;-3.21;81.67;94985.06;5091598;28;20655;-73
2024/01/13 01:46:33;;;;;;;4.63;1.58;;;;;;;-3.07;80.93;94983.78;5092036;28;20232;-74
2024/01/13 01:49:01;;;;;;;5.00;1.70;;;;;;;-3.18;80.96;94974.03;5091959;28;20233;-71
2024/01/13 01:51:30;;;;;;;8.57;1.65;;;;;;;-2.93;79.94;94987.78;5091870;28;20206;-73
2024/01/13 01:53:58;;;;;;;2.53;1.55;;;;;;;-2.97;80.07;94999.06;5091334;28;20226;-74
2024/01/13 01:56:28;;;;;;;3.78;2.13;;;;;;;-2.86;80.42;94991.09;5091403;28;20202;-74
2024/01/13 01:58:56;;;;;;;2.10;1.90;;;;;;;-2.91;80.18;94993.66;5090431;28;20229;-73
2024/01/13 02:01:25;;;;;;;1.48;1.10;;;;;;;-3.00;79.94;95000.34;5071482;28;20211;-73
2024/01/13 02:03:53;;;;;;;2.50;1.23;;;;;;;-2.97;80.38;94994.56;5071150;28;20207;-73
2024/01/13 02:06:20;;;;;;;1.95;1.67;;;;;;;-3.16;80.75;95001.09;5070899;28;20207;-73
2024/01/13 02:08:47;;;;;;;5.25;2.03;;;;;;;-3.09;80.43;94990.34;5071279;28;20264;-73
2024/01/13 02:11:14;;;;;;;2.88;1.92;;;;;;;-3.12;80.84;94985.50;5071637;28;20202;-73
2024/01/13 02:13:42;;;;;;;6.47;2.17;;;;;;;-3.11;80.78;94981.81;5071357;28;20571;-75
2024/01/13 02:16:10;;;;;;;7.88;1.98;;;;;;;-3.05;80.07;94989.66;5070598;28;20210;-74
2024/01/13 02:18:38;;;;;;;2.95;2.33;;;;;;;-3.09;82.04;94991.16;5071181;28;20222;-73
2024/01/13 02:21:05;;;;;;;3.63;1.70;;;;;;;-3.10;82.39;94989.53;5071137;28;20214;-74
2024/01/13 02:23:34;;;;;;;1.30;1.15;;;;;;;-2.96;81.48;94980.28;5071214;28;20283;-74
2024/01/13 02:26:01;;;;;;;3.70;1.88;;;;;;;-3.15;82.16;94975.41;5071477;28;20224;-74
2024/01/13 02:28:28;;;;;;;2.72;2.17;;;;;;;-3.01;82.09;94972.25;5070897;28;20306;-74
2024/01/13 02:30:54;;;;;;;2.13;1.50;;;;;;;-3.10;82.16;94973.66;5070540;28;20206;-73
2024/01/13 02:33:21;;;;;;;4.13;1.45;;;;;;;-2.99;81.21;94959.56;5071413;28;20264;-73
2024/01/13 02:35:48;;;;;;;8.85;3.05;;;;;;;-3.08;80.22;94962.81;5070511;28;20647;-73
2024/01/13 02:38:15;;;;;;;6.82;2.55;;;;;;;-3.09;80.15;94975.25;5071130;28;20264;-74
2024/01/13 02:40:43;;;;;;;2.88;1.98;;;;;;;-2.96;80.66;94963.59;5070768;28;20215;-74
2024/01/13 02:43:10;;;;;;;5.75;1.67;;;;;;;-2.92;80.52;94970.03;5071301;28;20199;-75
2024/01/13 02:45:37;;;;;;;7.55;2.63;;;;;;;-2.87;80.57;94962.97;5071004;28;20207;-74
2024/01/13 02:48:10;;;;;;;4.28;1.88;;;;;;;-3.02;81.05;94965.34;5070813;28;20260;-73
2024/01/13 02:50:37;;;;;;;3.95;1.67;;;;;;;-3.03;81.25;94952.34;5071116;28;20661;-74
2024/01/13 02:53:03;;;;;;;6.03;3.35;;;;;;;-3.03;81.05;94953.13;5070287;28;20287;-74
2024/01/13 02:55:30;;;;;;;2.30;1.98;;;;;;;-3.04;80.96;94953.38;5071007;28;20231;-73
2024/01/13 02:57:58;;;;;;;5.18;1.33;;;;;;;-3.01;81.55;94951.06;5070349;28;20254;-75
2024/01/13 03:00:25;;;;;;;3.70;1.75;;;;;;;-3.04;80.90;94967.44;5084940;28;20246;-74
2024/01/13 03:02:52;;;;;;;4.63;2.55;;;;;;;-2.97;81.03;94968.09;5090805;28;20244;-74
2024/01/13 03:05:19;;;;;;;1.92;1.27;;;;;;;-3.03;81.16;94974.34;5091472;28;20275;-73
2024/01/13 03:07:46;;;;;;;4.05;2.00;;;;;;;-2.94;81.15;94972.91;5090941;28;20339;-74
2024/01/13 03:10:12;;;;;;;6.43;3.05;;;;;;;-2.92;82.55;94975.34;5090923;28;20218;-73
2024/01/13 03:12:40;;;;;;;1.77;1.50;;;;;;;-3.11;81.63;94977.34;5090894;28;20583;-72
2024/01/13 03:15:10;;;;;;;3.33;1.85;;;;;;;-3.13;82.08;94990.00;5090953;28;20272;-73
2024/01/13 03:17:37;;;;;;;1.45;1.35;;;;;;;-3.01;81.35;94993.47;5091630;28;20635;-74
2024/01/13 03:20:05;;;;;;;6.60;3.00;;;;;;;-3.24;81.77;95004.06;5091252;28;20222;-73
2024/01/13 03:22:32;;;;;;;1.67;1.58;;;;;;;-3.13;81.46;94994.50;5090034;28;20207;-73
2024/01/13 03:24:58;;;;;;;2.97;1.73;;;;;;;-3.06;82.05;94998.66;5091196;28;20202;-74
2024/01/13 03:27:25;;;;;;;3.45;1.75;;;;;;;-3.14;82.81;95004.28;5090671;28;20301;-73
2024/01/13 03:29:52;;;;;;;6.95;3.10;;;;;;;-3.13;83.34;95005.91;5093675;28;20206;-73
2024/01/13 03:32:20;;;;;;;3.75;2.00;;;;;;;-3.13;83.97;95010.38;5094780;28;20327;-74
2024/01/13 03:34:47;;;;;;;3.55;2.10;;;;;;;-3.15;84.18;95008.00;5094472;28;20226;-73
2024/01/13 03:37:13;;;;;;;9.55;2.47;;;;;;;-3.28;84.42;95002.94;5094668;28;20213;-74
2024/01/13 03:39:42;;;;;;;5.15;2.22;;;;;;;-3.32;85.81;95001.78;5094209;28;20275;-72
2024/01/13 03:42:08;;;;;;;2.97;2.78;;;;;;;-3.35;85.00;95008.34;5094067;28;20210;-73
2024/01/13 03:44:35;;;;;;;4.88;2.25;;;;;;;-3.34;85.02;95003.88;5094377;28;20209;-74
2024/01/13 03:47:02;;;;;;;1.77;1.50;;;;;;;-3.53;84.86;94994.41;5094655;28;20214;-73
2024/01/13 03:49:31;;;;;;;7.70;2.58;;;;;;;-3.50;86.00;95001.91;5094439;28;20230;-73
2024/01/13 03:51:57;;;;;;;2.45;1.95;;;;;;;-3.39;86.02;94986.00;5094493;28;20297;-74
2024/01/13 03:54:24;;;;;;;4.72;2.10;;;;;;;-3.45;84.84;94981.66;5085667;28;20231;-75
2024/01/13 03:56:51;;;;;;;5.00;2.05;;;;;;;-3.48;85.27;94990.06;5088661;28;20234;-74
2024/01/13 03:59:18;;;;;;;8.02;2.45;;;;;;;-3.42;83.99;94983.03;5089046;28;20277;-73
2024/01/13 04:01:45;;;;;;;1.85;1.67;;;;;;;-3.61;84.61;94985.81;5073668;28;20206;-74
2024/01/13 04:04:12;;;;;;;3.22;2.00;;;;;;;-3.42;84.87;94986.50;5074082;28;20210;-74
2024/01/13 04:06:41;;;;;;;4.70;1.73;;;;;;;-3.47;84.80;94989.03;5074109;28;20206;-74
2024/01/13 04:09:09;;;;;;;2.20;1.75;;;;;;;-3.58;84.20;94990.66;5073343;28;20264;-73
2024/01/13 04:11:35;;;;;;;6.03;3.05;;;;;;;-3.52;84.17;94985.44;5072947;28;20241;-75
2024/01/13 04:14:02;;;;;;;4.70;2.15;;;;;;;-3.47;84.95;94993.50;5073669;28;20222;-73
2024/01/13 04:16:29;;;;;;;1.08;0.95;;;;;;;-3.82;83.95;94981.06;5073316;28;20211;-72
2024/01/13 04:18:56;;;;;;;1.65;1.50;;;;;;;-3.76;84.37;94990.75;5073599;28;20211;-72
2024/01/13 04:21:23;;;;;;;4.47;1.65;;;;;;;-3.74;85.78;94999.28;5073054;28;20256;-72
2024/01/13 04:23:51;;;;;;;3.75;1.98;;;;;;;-3.66;85.38;95001.56;5073238;28;20203;-73
2024/01/13 04:26:18;;;;;;;3.15;2.65;;;;;;;-3.57;86.19;94999.41;5072616;28;20663;-73
2024/01/13 04:28:45;;;;;;;1.92;1.52;;;;;;;-3.66;85.04;95009.50;5073652;28;20214;-73
2024/01/13 04:31:12;;;;;;;4.13;2.03;;;;;;;-3.61;84.84;95020.22;5072429;28;20269;-74
2024/01/13 04:33:39;;;;;;;2.22;1.95;;;;;;;-3.65;84.32;95024.34;5073279;28;20214;-73
2024/01/13 04:36:06;;;;;;;6.53;2.40;;;;;;;-3.71;83.48;95013.88;5072717;28;20234;-74
2024/01/13 04:38:33;;;;;;;4.50;2.45;;;;;;;-3.53;83.98;95026.19;5072948;28;20605;-74
2024/01/13 04:41:01;;;;;;;4.97;2.10;;;;;;;-3.71;82.71;95020.00;5071839;28;20219;-73
2024/01/13 04:43:28;;;;;;;4.30;2.42;;;;;;;-3.67;81.45;95028.25;5072930;28;20280;-73
2024/01/13 04:45:56;;;;;;;3.97;2.10;;;;;;;-3.59;81.73;95033.22;5073007;28;20203;-73
2024/01/13 04:48:23;;;;;;;10.85;2.67;;;;;;;-3.67;80.97;95031.72;5072928;28;20218;-74
2024/01/13 04:50:50;;;;;;;3.13;2.10;;;;;;;-3.50;80.15;95031.03;5072931;28;20233;-72
2024/01/13 04:53:17;;;;;;;3.67;2.33;;;;;;;-3.45;79.90;95036.47;5072429;28;20207;-74
2024/01/13 04:55:44;;;;;;;4.78;1.92;;;;;;;-3.38;79.26;95031.84;5058449;28;20238;-73
2024/01/13 04:58:12;;;;;;;3.55;2.65;;;;;;;-3.48;79.63;95040.38;5072493;28;20215;-74
2024/01/13 05:00:39;;;;;;;2.63;1.85;;;;;;;-3.29;79.77;95030.47;5088028;28;20279;-73
2024/01/13 05:03:06;;;;;;;2.10;1.48;;;;;;;-3.38;79.43;95030.00;5092981;28;20575;-73
2024/01/13 05:05:33;;;;;;;4.57;2.67;;;;;;;-3.25;78.99;95034.25;5092869;28;20207;-73
2024/01/13 05:07:59;;;;;;;2.67;1.50;;;;;;;-3.27;79.56;95020.41;5092943;28;20619;-72
2024/01/13 05:10:27;;;;;;;6.13;1.92;;;;;;;-3.26;78.81;95029.97;5092312;28;20202;-72
2024/01/13 05:12:53;;;;;;;4.68;2.40;;;;;;;-3.20;79.22;95029.06;5092496;28;20402;-73
2024/01/13 05:15:22;;;;;;;12.23;3.70;;;;;;;-3.07;78.12;95028.81;5092720;28;20226;-71
2024/01/13 05:17:49;;;;;;;1.77;1.63;;;;;;;-3.22;79.18;95018.72;5092701;28;20210;-73
2024/01/13 05:20:16;;;;;;;4.00;2.58;;;;;;;-3.35;78.55;95015.50;5092850;28;20286;-73
2024/01/13 05:22:43;;;;;;;3.83;1.48;;;;;;;-3.35;78.63;94996.94;5092417;28;20205;-73
2024/01/13 05:25:10;;;;;;;2.95;1.42;;;;;;;-3.52;79.49;94985.44;5092474;28;20381;-73
2024/01/13 05:27:37;;;;;;;6.55;2.78;;;;;;;-3.39;78.88;94991.31;5091982;28;20297;-72
2024/01/13 05:30:04;;;;;;;5.72;1.80;;;;;;;-3.16;78.41;94979.09;5092816;28;20583;-73
2024/01/13 05:32:32;;;;;;;2.45;1.73;;;;;;;-3.34;78.94;94987.97;5091816;28;20605;-74
2024/01/13 05:34:59;;;;;;;2.72;0.68;;;;;;;-3.48;78.83;94992.72;5092589;28;20226;-73
2024/01/13 05:37:26;;;;;;;6.07;2.17;;;;;;;-3.28;78.54;94989.72;5092048;28;20217;-72
2024/01/13 05:39:53;;;;;;;3.35;1.58;;;;;;;-3.20;78.76;94994.63;5093146;28;20221;-75
2024/01/13 05:42:20;;;;;;;2.05;1.30;;;;;;;-3.36;78.19;94990.84;5091946;28;20330;-74
2024/01/13 05:44:46;;;;;;;3.75;2.00;;;;;;;-3.38;79.36;94997.41;5092753;28;20539;-72
2024/01/13 05:47:14;;;;;;;8.52;2.20;;;;;;;-3.33;78.52;95005.47;5083988;28;20213;-73
2024/01/13 05:49:44;;;;;;;4.57;2.35;;;;;;;-3.45;78.59;94999.38;5083064;28;20305;-74
2024/01/13 05:52:11;;;;;;;2.22;1.85;;;;;;;-3.43;78.52;95011.38;5083402;28;20239;-72
2024/01/13 05:54:43;;;;;;;2.08;1.63;;;;;;;-3.31;79.48;95008.69;5084955;28;20299;-74
2024/01/13 05:57:09;;;;;;;6.88;2.13;;;;;;;-3.49;78.02;95019.41;5088575;28;20202;-72
2024/01/13 05:59:39;;;;;;;0.98;0.98;;;;;;;-3.51;79.51;95024.13;5080313;28;20231;-72
2024/01/13 06:02:08;;;;;;;4.00;2.08;;;;;;;-3.39;78.96;95022.28;5067875;28;20199;-71
2024/01/13 06:04:35;;;;;;;3.05;2.25;;;;;;;-3.38;78.10;95018.59;5071394;28;20233;-71
2024/01/13 06:07:06;;;;;;;2.47;1.50;;;;;;;-3.30;78.81;95007.66;5071176;28;20570;-74
2024/01/13 06:09:33;;;;;;;9.10;2.00;;;;;;;-3.30;78.37;95010.31;5071137;28;20214;-75
2024/01/13 06:11:59;;;;;;;3.05;1.42;;;;;;;-3.56;79.10;95005.50;5071434;28;20598;-75
2024/01/13 06:14:26;;;;;;;2.47;1.92;;;;;;;-3.51;80.02;94997.66;5071279;28;20555;-74
2024/01/13 06:16:53;;;;;;;5.70;2.20;;;;;;;-3.41;80.32;94998.69;5071324;28;20226;-75
2024/01/13 06:19:20;;;;;;;2.65;1.85;;;;;;;-3.44;78.99;95004.47;5071310;28;20641;-72
2024/01/13 06:21:49;;;;;;;2.83;1.98;;;;;;;-3.14;79.32;95009.59;5071295;28;20206;-74
2024/01/13 06:24:17;;;;;;;4.90;2.45;;;;;;;-3.33;80.02;95019.53;5071445;28;20621;-72
2024/01/13 06:26:44;;;;;;;3.42;1.67;;;;;;;-3.20;78.87;95021.13;5071018;28;20199;-72
2024/01/13 06:29:11;;;;;;;1.50;1.00;;;;;;;-1.70;100.00;95006.69;5071007;28;20618;-73
2024/01/13 06:31:38;;;;;;;2.83;2.30;;;;;;;-0.63;99.74;94999.13;5058761;28;20276;-73
2024/01/13 06:34:04;;;;;;;1.23;1.13;;;;;;;-0.97;84.67;94987.81;5071098;28;20260;-72
2024/01/13 06:36:31;;;;;;;2.13;1.40;;;;;;;-1.65;74.63;94990.84;5058598;28;20230;-74
2024/01/13 06:39:06;;;;;;;3.60;2.00;;;;;;;-2.03;76.05;94989.69;5071035;28;20674;-75
2024/01/13 06:41:34;;;;;;;4.65;2.28;;;;;;;-1.98;75.20;94991.63;5071548;28;20551;-74
2024/01/13 06:44:01;;;;;;;2.80;1.60;;;;;;;-2.04;75.73;94989.91;5070885;28;20211;-73
2024/01/13 06:46:28;;;;;;;0.52;0.52;;;;;;;-2.32;76.15;94994.22;5068673;28;20230;-74
2024/01/13 06:48:55;;;;;;;5.68;2.22;;;;;;;-2.91;77.44;95004.25;5066501;28;20237;-74
2024/01/13 06:51:21;;;;;;;1.85;1.60;;;;;;;-2.64;78.39;95009.00;5071020;28;20207;-75
2024/01/13 06:53:48;;;;;;;0.20;0.20;;;;;;;-2.48;76.59;95016.22;5071273;28;20214;-76
2024/01/13 06:56:15;;;;;;;7.63;3.10;;;;;;;-2.47;76.63;95025.78;5070838;28;20227;-75
2024/01/13 06:58:46;;;;;;;3.10;2.10;;;;;;;-2.51;76.17;95024.66;5071580;28;20225;-74
2024/01/13 07:01:14;;;;;;;4.13;1.60;;;;;;;-2.60;75.84;95020.78;5070510;28;20194;-75
2024/01/13 07:03:43;;;;;;;3.40;1.80;;;;;;;-2.43;75.65;95032.22;5074538;28;20674;-77
2024/01/13 07:06:10;;;;;;;2.67;1.38;;;;;;;-2.42;76.36;95028.53;5074699;28;20203;-74
2024/01/13 07:08:36;;;;;;;0.20;0.20;;;;;;;-2.27;75.37;95026.16;5074673;28;20203;-75
2024/01/13 07:11:12;;;;;;;1.05;1.05;;;;;;;-2.28;76.26;95037.81;5074972;28;20226;-75
2024/01/13 07:13:39;;;;;;;1.67;0.47;;;;;;;-2.48;75.39;95040.09;5074692;28;20598;-76
2024/01/13 07:16:07;;;;;;;0.82;0.70;;;;;;;-2.72;77.28;95047.28;5073702;28;20373;-73
2024/01/13 07:18:34;;;;;;;0.20;0.20;;;;;;;-2.48;78.28;95045.41;5074974;28;20601;-75
2024/01/13 07:21:01;;;;;;;0.40;0.40;;;;;;;-2.70;77.58;95052.38;5074342;28;20677;-76
2024/01/13 07:23:30;;;;;;;4.15;1.85;;;;;;;-2.60;77.74;95048.09;5074020;28;20207;-74
2024/01/13 07:25:56;;;;;;;4.05;3.03;;;;;;;-2.58;78.21;95037.22;5074400;28;20311;-75
2024/01/13 07:28:23;;;;;;;5.30;1.77;;;;;;;-2.60;78.23;95057.88;5073998;28;20218;-74
2024/01/13 07:30:50;;;;;;;2.00;1.60;;;;;;;-2.65;78.51;95060.44;5073751;28;20230;-74
2024/01/13 07:33:18;;;;;;;1.58;1.27;;;;;;;-2.67;78.85;95049.25;5070227;28;20297;-75
2024/01/13 07:35:45;;;;;;;2.78;1.77;;;;;;;-2.77;78.94;95062.31;5059748;28;20573;-77
2024/01/13 07:38:13;;;;;;;4.47;2.50;;;;;;;-2.74;78.89;95052.03;5072255;28;20195;-75
2024/01/13 07:40:40;;;;;;;3.40;1.60;;;;;;;-2.52;79.67;95046.91;5065013;28;20216;-77
2024/01/13 07:43:06;;;;;;;11.07;3.15;;;;;;;-2.65;78.58;95044.53;5067272;28;20269;-75
2024/01/13 07:45:37;;;;;;;4.75;1.85;;;;;;;-2.36;78.87;95042.69;5072843;28;20211;-75
2024/01/13 07:48:04;;;;;;;0.77;0.77;;;;;;;-2.53;78.50;95053.25;5069846;28;20191;-74
2024/01/13 07:50:33;;;;;;;2.85;1.20;;;;;;;-2.09;78.87;95056.19;5060235;28;20229;-75
2024/01/13 07:53:01;;;;;;;0.40;0.40;;;;;;;-2.45;78.49;95039.59;5064490;28;20211;-75
2024/01/13 07:55:27;;;;;;;0.60;0.60;;;;;;;-2.48;78.72;95039.28;5067166;28;20252;-77
2024/01/13 07:57:54;;;;;;;3.72;0.85;;;;;;;-2.63;78.77;95039.78;5064159;28;20195;-76
2024/01/13 08:00:23;;;;;;;0.52;0.50;;;;;;;-2.53;79.26;95042.63;5079604;28;20582;-74
2024/01/13 08:02:53;;;;;;;0.30;0.30;;;;;;;-1.99;78.91;95043.09;5077662;28;20585;-75
2024/01/13 08:05:20;;;;;;;0.40;0.40;;;;;;;-2.22;77.73;95034.22;5088257;28;20194;-74
2024/01/13 08:07:52;;;;;;;0.38;0.38;;;;;;;-2.29;78.13;95032.72;5084917;28;20244;-73
2024/01/13 08:10:22;;;;;;;3.13;1.80;;;;;;;-2.09;77.87;95033.13;5088366;28;20199;-74
2024/01/13 08:12:49;;;;;;;3.45;2.20;;;;;;;-2.04;76.80;95035.03;5070293;28;20210;-74
2024/01/13 08:15:16;;;;;;;3.60;1.73;;;;;;;-2.05;77.40;95036.09;5090991;28;20206;-74
2024/01/13 08:17:43;;;;;;;1.67;1.33;;;;;;;-2.10;76.31;95030.69;5092432;28;20289;-74
2024/01/13 08:20:10;;;;;;;5.38;1.67;;;;;;;-1.75;76.08;95043.75;5093133;28;20209;-75
2024/01/13 08:22:37;;;;;;;1.58;1.48;;;;;;;-1.16;73.52;95040.44;5093347;28;20206;-73
2024/01/13 08:25:07;;;;;;;2.83;1.73;;;;;;;-0.88;71.91;95041.34;5093575;28;20206;-74
2024/01/13 08:27:34;;;;;;;4.13;1.55;;;;;;;-1.20;72.42;95044.63;5092789;28;20194;-74
2024/01/13 08:30:00;;;;;;;0.20;0.20;;;;;;;-1.37;72.08;95041.22;5092720;28;20589;-73
2024/01/13 08:32:28;;;;;;;0.30;0.30;;;;;;;-1.24;72.18;95045.38;5085914;28;20206;-75
2024/01/13 08:34:55;;;;;;;0.55;0.55;;;;;;;-1.45;71.90;95033.63;5085026;28;20357;-73
2024/01/13 08:37:22;;;;;;;3.13;2.88;;;;;;;-1.16;72.67;95026.34;5090888;28;20226;-76
2024/01/13 08:39:49;;;;;;;5.15;3.90;;;;;;;-1.18;71.50;95029.25;5091295;28;20297;-75
2024/01/13 08:42:17;;;;;;;0.50;0.50;;;;;;;-1.08;73.53;95031.22;5091624;28;20209;-76
2024/01/13 08:44:44;;;;;;;4.75;1.90;;;;;;;-1.23;70.61;95015.09;5091808;28;20214;-75
2024/01/13 08:47:11;;;;;;;0.43;0.43;;;;;;;-1.05;72.57;95029.94;5091274;28;20206;-75
2024/01/13 08:49:39;;;;;;;0.50;0.50;;;;;;;-0.97;70.58;95019.72;5091868;28;20242;-74
2024/01/13 08:52:08;;;;;;;0.85;0.85;;;;;;;-0.99;69.98;95021.81;5088813;28;20285;-76
2024/01/13 08:54:36;;;;;;;0.22;0.22;;;;;;;-0.95;70.01;95022.09;5083018;28;20207;-76
2024/01/13 08:57:03;;;;;;;0.63;0.63;;;;;;;-1.15;70.91;95001.38;5089093;28;20225;-76
2024/01/13 08:59:33;;;;;;;0.20;0.20;;;;;;;-0.94;70.74;94997.94;5092525;28;20265;-77
2024/01/13 09:02:00;;;;;;;0.30;0.30;;;;;;;-1.16;70.57;94984.63;5092198;28;20702;-75
2024/01/13 09:04:27;;;;;;;0.73;0.73;;;;;;;-1.05;71.27;94990.06;5092243;28;20560;-74
2024/01/13 09:06:53;;;;;;;0.57;0.55;;;;;;;-0.57;70.35;94981.38;5092289;28;20555;-76
2024/01/13 09:09:20;;;;;;;0.22;0.22;;;;;;;-0.74;68.67;94966.28;5092338;28;20237;-75
2024/01/13 09:11:48;;;;;;;0.30;0.30;;;;;;;-0.39;68.77;94967.72;5092146;28;20227;-75
2024/01/13 09:14:16;;;;;;;0.20;0.20;;;;;;;-0.47;68.58;94965.50;5092562;28;20225;-75
2024/01/13 09:16:44;;;;;;;0.30;0.30;;;;;;;-0.47;69.27;94960.19;5091123;28;20291;-75
2024/01/13 09:19:11;;;;;;;3.67;0.57;;;;;;;-0.43;69.00;94962.09;5092737;28;20202;-77
2024/01/13 09:21:38;;;;;;;2.75;2.33;;;;;;;-0.74;70.33;94960.16;5089058;28;20214;-77
2024/01/13 09:24:05;;;;;;;0.50;0.50;;;;;;;-0.65;69.90;94968.50;5084509;28;20579;-76
2024/01/13 09:26:32;;;;;;;0.57;0.57;;;;;;;-0.82;69.98;94953.41;5090423;28;20205;-77
2024/01/13 09:28:59;;;;;;;0.20;0.20;;;;;;;-0.86;71.80;94952.31;5092257;28;20217;-77
2024/01/13 09:31:26;;;;;;;0.20;0.20;;;;;;;-0.39;69.97;94949.06;5091184;28;20625;-76
2024/01/13 09:33:54;;;;;;;0.20;0.20;;;;;;;-0.09;68.27;94945.91;5092092;28;20202;-77
2024/01/13 09:36:24;;;;;;;0.90;0.70;;;;;;;-0.12;67.93;94944.53;5090500;28;20226;-75
2024/01/13 09:38:51;;;;;;;0.30;0.30;;;;;;;-0.23;69.48;94937.53;5084744;28;20210;-77
2024/01/13 09:41:18;;;;;;;0.30;0.30;;;;;;;-0.18;67.19;94940.25;5092219;28;20577;-76
2024/01/13 09:43:53;;;;;;;0.20;0.20;;;;;;;-0.08;65.68;94934.19;5091353;28;20248;-77
2024/01/13 09:46:20;;;;;;;0.20;0.20;;;;;;;0.25;65.50;94928.63;5091069;28;20213;-78
2024/01/13 09:48:50;;;;;;;0.65;0.65;;;;;;;0.42;65.14;94920.44;5090809;28;20210;-77
2024/01/13 09:51:19;;;;;;;0.38;0.38;;;;;;;1.02;65.02;94919.19;5090926;28;20206;-77
2024/01/13 09:53:55;;;;;;;0.32;0.32;;;;;;;1.14;62.33;94916.28;5086778;28;20213;-79
2024/01/13 09:56:30;;;;;;;2.35;0.85;;;;;;;0.84;62.66;94916.94;5090717;28;20218;-76
2024/01/13 09:59:00;;;;;;;0.28;0.28;;;;;;;0.62;62.32;94904.59;5090584;28;20210;-77
2024/01/13 10:01:31;;;;;;;0.40;0.40;;;;;;;0.66;64.88;94920.88;5091485;28;20277;-81
2024/01/13 10:03:58;;;;;;;0.20;0.20;;;;;;;0.48;64.87;94911.44;5091640;28;20210;-81
2024/01/13 10:06:26;;;;;;;2.25;1.38;;;;;;;0.41;65.97;94912.75;5091536;28;20697;-76
2024/01/13 10:08:53;;;;;;;0.32;0.32;;;;;;;0.35;66.07;94899.38;5092562;28;20210;-85
2024/01/13 10:11:20;;;;;;;2.38;1.20;;;;;;;0.48;65.37;94881.31;5091674;28;20215;-79
2024/01/13 10:13:59;;;;;;;1.80;1.65;;;;;;;0.25;67.61;94883.34;5090923;28;20759;-81
2024/01/13 10:16:30;;;;;;;0.20;0.20;;;;;;;0.89;67.07;94883.13;5090644;28;20230;-80
2024/01/13 10:18:58;;;;;;;0.82;0.75;;;;;;;0.51;64.93;94873.63;5091155;28;20206;-75
2024/01/13 10:21:27;;;;;;;0.65;0.50;;;;;;;-0.09;67.83;94861.50;5090344;28;20209;-79
2024/01/13 10:23:55;;;;;;;1.27;1.00;;;;;;;-0.60;68.39;94859.50;5091224;28;20206;-83
2024/01/13 10:26:23;;;;;;;1.15;1.10;;;;;;;-0.44;69.43;94861.25;5091405;28;20584;-78
2024/01/13 10:28:51;;;;;;;0.35;0.35;;;;;;;-0.31;69.75;94852.03;5090379;28;20620;-80
2024/01/13 10:31:20;;;;;;;0.28;0.28;;;;;;;0.05;68.43;94850.44;5091427;28;20297;-77
2024/01/13 10:33:48;;;;;;;0.40;0.40;;;;;;;-0.61;69.71;94860.53;5082524;28;20281;-76
2024/01/13 10:36:16;;;;;;;6.72;1.40;;;;;;;-0.51;70.76;94855.31;5090477;28;20202;-81
2024/01/13 10:38:44;;;;;;;0.30;0.30;;;;;;;-0.55;69.54;94843.59;5082687;28;20202;-79
2024/01/13 10:41:14;;;;;;;4.72;2.25;;;;;;;-0.74;70.55;94851.13;5094333;28;20539;-79
2024/01/13 10:43:43;;;;;;;0.43;0.43;;;;;;;-0.25;69.82;94851.81;5094847;28;20210;-81
2024/01/13 10:46:12;;;;;;;1.88;1.73;;;;;;;0.05;70.07;94855.75;5094968;28;20780;-79
2024/01/13 10:48:43;;;;;;;2.05;0.93;;;;;;;0.19;68.66;94857.72;5094515;28;20230;-78
2024/01/13 10:51:22;;;;;;;0.52;0.52;;;;;;;0.60;68.95;94836.63;5095198;28;20644;-80
2024/01/13 10:53:56;;;;;;;0.20;0.20;;;;;;;0.53;69.10;94842.19;5090984;28;20198;-80
2024/01/13 10:56:23;;;;;;;1.27;1.05;;;;;;;0.46;67.11;94857.59;5094532;28;20663;-77
2024/01/13 10:58:51;;;;;;;0.45;0.45;;;;;;;0.48;70.37;94834.16;5093753;28;20218;-79
2024/01/13 11:01:18;;;;;;;0.40;0.40;;;;;;;0.82;67.25;94839.13;5074915;28;20598;-81
2024/01/13 11:03:47;;;;;;;0.43;0.43;;;;;;;0.70;66.21;94842.78;5074646;28;20214;-78
2024/01/13 11:06:13;;;;;;;0.35;0.35;;;;;;;0.98;66.03;94836.22;5074353;28;20564;-80
2024/01/13 11:08:43;;;;;;;2.65;1.15;;;;;;;0.96;64.04;94833.00;5074095;28;20206;-80
2024/01/13 11:11:13;;;;;;;0.30;0.30;;;;;;;1.24;65.19;94831.75;5074417;28;20321;-83
2024/01/13 11:13:46;;;;;;;0.57;0.57;;;;;;;1.06;66.61;94829.59;5074083;28;20540;-80
2024/01/13 11:16:16;;;;;;;0.50;0.50;;;;;;;1.54;63.49;94824.84;5074122;28;20294;-81
2024/01/13 11:18:46;;;;;;;0.50;0.50;;;;;;;1.43;62.86;94827.50;5074248;28;20714;-82
2024/01/13 11:21:13;;;;;;;1.75;0.73;;;;;;;0.91;64.01;94832.22;5075268;28;20211;-78
2024/01/13 11:23:46;;;;;;;0.80;0.80;;;;;;;0.57;65.51;94831.78;5074605;28;20587;-82
2024/01/13 11:26:16;;;;;;;0.20;0.20;;;;;;;0.69;65.37;94835.03;5073619;28;20210;-81
2024/01/13 11:28:46;;;;;;;0.20;0.20;;;;;;;1.04;64.16;94826.38;5073549;28;20202;-78
2024/01/13 11:31:33;;;;;;;1.08;1.05;;;;;;;1.22;64.32;94827.75;5074255;28;20203;-82
2024/01/13 11:34:04;;;;;;;0.20;0.20;;;;;;;1.59;63.42;94822.19;5067609;28;20217;-78
2024/01/13 11:36:33;;;;;;;2.05;0.95;;;;;;;1.26;64.58;94818.13;5074356;28;20248;-82